sensor_id;sensor_type;location;lat;lon;timestamp;P1;durP1;ratioP1;P2;durP2;ratioP2
78197;SDS011;67472;51.554;7.812;2024-03-02T00:02:16;6.38;;;3.72;;
78197;SDS011;67472;51.554;7.812;2024-03-02T00:05:03;3.92;;;3.50;;
78197;SDS011;67472;51.554;7.812;2024-03-02T00:07:53;7.10;;;3.90;;
78197;SDS011;67472;51.554;7.812;2024-03-02T00:10:43;4.72;;;3.65;;
78197;SDS011;67472;51.554;7.812;2024-03-02T00:13:30;5.25;;;3.40;;
78197;SDS011;67472;51.554;7.812;2024-03-02T00:16:18;4.60;;;3.55;;
78197;SDS011;67472;51.554;7.812;2024-03-02T00:19:07;4.68;;;3.03;;
78197;SDS011;67472;51.554;7.812;2024-03-02T00:21:55;5.05;;;3.67;;
78197;SDS011;67472;51.554;7.812;2024-03-02T00:24:41;5.28;;;2.97;;
78197;SDS011;67472;51.554;7.812;2024-03-02T00:27:28;3.50;;;2.85;;
78197;SDS011;67472;51.554;7.812;2024-03-02T00:30:26;3.85;;;3.30;;
78197;SDS011;67472;51.554;7.812;2024-03-02T00:33:34;4.38;;;3.40;;
78197;SDS011;67472;51.554;7.812;2024-03-02T00:36:24;3.38;;;2.60;;
78197;SDS011;67472;51.554;7.812;2024-03-02T00:39:12;3.60;;;2.92;;
78197;SDS011;67472;51.554;7.812;2024-03-02T00:42:01;5.20;;;3.00;;
78197;SDS011;67472;51.554;7.812;2024-03-02T00:44:47;4.20;;;3.10;;
78197;SDS011;67472;51.554;7.812;2024-03-02T00:47:35;2.92;;;2.53;;
78197;SDS011;67472;51.554;7.812;2024-03-02T00:50:24;3.22;;;2.92;;
78197;SDS011;67472;51.554;7.812;2024-03-02T00:53:12;6.03;;;3.63;;
78197;SDS011;67472;51.554;7.812;2024-03-02T00:56:00;3.88;;;2.90;;
78197;SDS011;67472;51.554;7.812;2024-03-02T00:58:47;4.07;;;3.13;;
78197;SDS011;67472;51.554;7.812;2024-03-02T01:01:34;5.68;;;3.05;;
78197;SDS011;67472;51.554;7.812;2024-03-02T01:04:20;5.63;;;3.10;;
78197;SDS011;67472;51.554;7.812;2024-03-02T01:07:07;3.90;;;2.72;;
78197;SDS011;67472;51.554;7.812;2024-03-02T01:09:56;4.45;;;2.85;;
78197;SDS011;67472;51.554;7.812;2024-03-02T01:12:43;4.65;;;2.75;;
78197;SDS011;67472;51.554;7.812;2024-03-02T01:15:30;3.22;;;2.30;;
78197;SDS011;67472;51.554;7.812;2024-03-02T01:18:17;3.67;;;2.47;;
78197;SDS011;67472;51.554;7.812;2024-03-02T01:21:03;3.30;;;2.70;;
78197;SDS011;67472;51.554;7.812;2024-03-02T01:23:50;3.90;;;2.25;;
78197;SDS011;67472;51.554;7.812;2024-03-02T01:26:38;2.47;;;2.00;;
78197;SDS011;67472;51.554;7.812;2024-03-02T01:29:25;3.47;;;2.35;;
78197;SDS011;67472;51.554;7.812;2024-03-02T01:32:14;4.07;;;2.53;;
78197;SDS011;67472;51.554;7.812;2024-03-02T01:35:00;4.20;;;3.00;;
78197;SDS011;67472;51.554;7.812;2024-03-02T01:37:47;2.97;;;2.38;;
78197;SDS011;67472;51.554;7.812;2024-03-02T01:40:34;5.57;;;3.35;;
78197;SDS011;67472;51.554;7.812;2024-03-02T01:43:22;3.00;;;2.50;;
78197;SDS011;67472;51.554;7.812;2024-03-02T01:46:09;3.40;;;3.10;;
78197;SDS011;67472;51.554;7.812;2024-03-02T01:48:55;2.88;;;2.25;;
78197;SDS011;67472;51.554;7.812;2024-03-02T01:51:41;3.13;;;2.63;;
78197;SDS011;67472;51.554;7.812;2024-03-02T01:54:28;3.40;;;2.90;;
78197;SDS011;67472;51.554;7.812;2024-03-02T01:57:14;3.67;;;2.90;;
78197;SDS011;67472;51.554;7.812;2024-03-02T02:00:04;6.55;;;3.58;;
78197;SDS011;67472;51.554;7.812;2024-03-02T02:02:57;3.75;;;3.13;;
78197;SDS011;67472;51.554;7.812;2024-03-02T02:05:44;4.57;;;3.00;;
78197;SDS011;67472;51.554;7.812;2024-03-02T02:08:32;2.92;;;2.63;;
78197;SDS011;67472;51.554;7.812;2024-03-02T02:11:19;4.43;;;2.70;;
78197;SDS011;67472;51.554;7.812;2024-03-02T02:14:06;4.22;;;2.88;;
78197;SDS011;67472;51.554;7.812;2024-03-02T02:16:54;5.38;;;2.40;;
78197;SDS011;67472;51.554;7.812;2024-03-02T02:19:42;3.38;;;2.30;;
78197;SDS011;67472;51.554;7.812;2024-03-02T02:22:29;6.43;;;2.53;;
78197;SDS011;67472;51.554;7.812;2024-03-02T02:25:16;3.67;;;2.40;;
78197;SDS011;67472;51.554;7.812;2024-03-02T02:28:03;5.07;;;2.58;;
78197;SDS011;67472;51.554;7.812;2024-03-02T02:30:49;3.72;;;2.15;;
78197;SDS011;67472;51.554;7.812;2024-03-02T02:33:39;5.35;;;2.50;;
78197;SDS011;67472;51.554;7.812;2024-03-02T02:36:25;5.03;;;2.75;;
78197;SDS011;67472;51.554;7.812;2024-03-02T02:39:14;2.88;;;2.38;;
78197;SDS011;67472;51.554;7.812;2024-03-02T02:42:04;4.28;;;2.55;;
78197;SDS011;67472;51.554;7.812;2024-03-02T02:44:51;2.47;;;2.20;;
78197;SDS011;67472;51.554;7.812;2024-03-02T02:47:38;4.20;;;2.38;;
78197;SDS011;67472;51.554;7.812;2024-03-02T02:50:25;3.55;;;2.70;;
78197;SDS011;67472;51.554;7.812;2024-03-02T02:53:12;3.83;;;2.70;;
78197;SDS011;67472;51.554;7.812;2024-03-02T02:56:02;3.25;;;2.80;;
78197;SDS011;67472;51.554;7.812;2024-03-02T02:58:48;3.20;;;2.33;;
78197;SDS011;67472;51.554;7.812;2024-03-02T03:01:35;4.65;;;2.58;;
78197;SDS011;67472;51.554;7.812;2024-03-02T03:04:22;3.92;;;2.42;;
78197;SDS011;67472;51.554;7.812;2024-03-02T03:07:08;4.45;;;2.50;;
78197;SDS011;67472;51.554;7.812;2024-03-02T03:09:55;2.65;;;2.08;;
78197;SDS011;67472;51.554;7.812;2024-03-02T03:12:43;4.88;;;2.40;;
78197;SDS011;67472;51.554;7.812;2024-03-02T03:15:29;4.25;;;2.25;;
78197;SDS011;67472;51.554;7.812;2024-03-02T03:18:15;3.20;;;2.53;;
78197;SDS011;67472;51.554;7.812;2024-03-02T03:21:02;3.97;;;2.25;;
78197;SDS011;67472;51.554;7.812;2024-03-02T03:23:49;2.95;;;2.25;;
78197;SDS011;67472;51.554;7.812;2024-03-02T03:26:35;2.58;;;2.17;;
78197;SDS011;67472;51.554;7.812;2024-03-02T03:29:23;4.88;;;2.58;;
78197;SDS011;67472;51.554;7.812;2024-03-02T03:32:09;3.40;;;2.25;;
78197;SDS011;67472;51.554;7.812;2024-03-02T03:34:56;3.80;;;2.70;;
78197;SDS011;67472;51.554;7.812;2024-03-02T03:37:42;3.45;;;2.53;;
78197;SDS011;67472;51.554;7.812;2024-03-02T03:40:29;2.95;;;2.47;;
78197;SDS011;67472;51.554;7.812;2024-03-02T03:43:15;5.50;;;2.60;;
78197;SDS011;67472;51.554;7.812;2024-03-02T03:46:03;4.43;;;2.70;;
78197;SDS011;67472;51.554;7.812;2024-03-02T03:48:49;4.05;;;2.78;;
78197;SDS011;67472;51.554;7.812;2024-03-02T03:51:35;6.55;;;2.72;;
78197;SDS011;67472;51.554;7.812;2024-03-02T03:54:21;4.53;;;2.35;;
78197;SDS011;67472;51.554;7.812;2024-03-02T03:57:08;4.85;;;3.20;;
78197;SDS011;67472;51.554;7.812;2024-03-02T03:59:54;3.40;;;2.97;;
78197;SDS011;67472;51.554;7.812;2024-03-02T04:02:42;7.72;;;3.45;;
78197;SDS011;67472;51.554;7.812;2024-03-02T04:05:29;5.32;;;3.45;;
78197;SDS011;67472;51.554;7.812;2024-03-02T04:08:15;3.53;;;2.88;;
78197;SDS011;67472;51.554;7.812;2024-03-02T04:11:01;3.85;;;2.42;;
78197;SDS011;67472;51.554;7.812;2024-03-02T04:13:49;3.78;;;2.60;;
78197;SDS011;67472;51.554;7.812;2024-03-02T04:16:36;3.85;;;2.97;;
78197;SDS011;67472;51.554;7.812;2024-03-02T04:19:25;5.05;;;3.47;;
78197;SDS011;67472;51.554;7.812;2024-03-02T04:22:11;5.60;;;2.95;;
78197;SDS011;67472;51.554;7.812;2024-03-02T04:24:58;5.40;;;2.85;;
78197;SDS011;67472;51.554;7.812;2024-03-02T04:27:44;4.25;;;2.67;;
78197;SDS011;67472;51.554;7.812;2024-03-02T04:30:31;5.78;;;3.30;;
78197;SDS011;67472;51.554;7.812;2024-03-02T04:33:19;7.32;;;3.53;;
78197;SDS011;67472;51.554;7.812;2024-03-02T04:36:07;5.55;;;3.60;;
78197;SDS011;67472;51.554;7.812;2024-03-02T04:38:54;5.78;;;3.15;;
78197;SDS011;67472;51.554;7.812;2024-03-02T04:41:40;4.25;;;2.67;;
78197;SDS011;67472;51.554;7.812;2024-03-02T04:44:26;4.05;;;2.97;;
78197;SDS011;67472;51.554;7.812;2024-03-02T04:47:12;5.70;;;3.30;;
78197;SDS011;67472;51.554;7.812;2024-03-02T04:49:58;7.20;;;3.40;;
78197;SDS011;67472;51.554;7.812;2024-03-02T04:52:47;6.20;;;3.65;;
78197;SDS011;67472;51.554;7.812;2024-03-02T04:55:34;5.82;;;4.18;;
78197;SDS011;67472;51.554;7.812;2024-03-02T04:58:30;6.35;;;3.20;;
78197;SDS011;67472;51.554;7.812;2024-03-02T05:01:17;5.28;;;2.78;;
78197;SDS011;67472;51.554;7.812;2024-03-02T05:04:03;4.18;;;3.05;;
78197;SDS011;67472;51.554;7.812;2024-03-02T05:06:49;5.53;;;3.47;;
78197;SDS011;67472;51.554;7.812;2024-03-02T05:09:37;4.43;;;2.97;;
78197;SDS011;67472;51.554;7.812;2024-03-02T05:12:23;5.60;;;3.53;;
78197;SDS011;67472;51.554;7.812;2024-03-02T05:15:33;5.28;;;2.92;;
78197;SDS011;67472;51.554;7.812;2024-03-02T05:18:19;5.00;;;3.35;;
78197;SDS011;67472;51.554;7.812;2024-03-02T05:21:05;5.95;;;3.58;;
78197;SDS011;67472;51.554;7.812;2024-03-02T05:23:51;4.32;;;3.55;;
78197;SDS011;67472;51.554;7.812;2024-03-02T05:26:37;4.18;;;3.30;;
78197;SDS011;67472;51.554;7.812;2024-03-02T05:29:23;5.68;;;3.58;;
78197;SDS011;67472;51.554;7.812;2024-03-02T05:32:11;4.55;;;3.67;;
78197;SDS011;67472;51.554;7.812;2024-03-02T05:34:57;6.68;;;4.25;;
78197;SDS011;67472;51.554;7.812;2024-03-02T05:37:43;7.07;;;4.70;;
78197;SDS011;67472;51.554;7.812;2024-03-02T05:40:29;7.57;;;4.38;;
78197;SDS011;67472;51.554;7.812;2024-03-02T05:43:15;6.97;;;4.55;;
78197;SDS011;67472;51.554;7.812;2024-03-02T05:46:03;9.15;;;4.70;;
78197;SDS011;67472;51.554;7.812;2024-03-02T05:48:50;7.45;;;5.15;;
78197;SDS011;67472;51.554;7.812;2024-03-02T05:51:36;7.05;;;5.80;;
78197;SDS011;67472;51.554;7.812;2024-03-02T05:54:22;8.23;;;4.95;;
78197;SDS011;67472;51.554;7.812;2024-03-02T05:57:08;6.35;;;4.78;;
78197;SDS011;67472;51.554;7.812;2024-03-02T06:00:17;6.07;;;4.70;;
78197;SDS011;67472;51.554;7.812;2024-03-02T06:03:04;8.20;;;4.63;;
78197;SDS011;67472;51.554;7.812;2024-03-02T06:05:52;9.63;;;4.70;;
78197;SDS011;67472;51.554;7.812;2024-03-02T06:08:38;8.02;;;5.43;;
78197;SDS011;67472;51.554;7.812;2024-03-02T06:11:24;8.18;;;5.03;;
78197;SDS011;67472;51.554;7.812;2024-03-02T06:14:10;7.15;;;5.35;;
78197;SDS011;67472;51.554;7.812;2024-03-02T06:16:56;12.05;;;5.90;;
78197;SDS011;67472;51.554;7.812;2024-03-02T06:19:44;8.25;;;5.55;;
78197;SDS011;67472;51.554;7.812;2024-03-02T06:22:32;9.52;;;5.88;;
78197;SDS011;67472;51.554;7.812;2024-03-02T06:25:18;8.90;;;6.85;;
78197;SDS011;67472;51.554;7.812;2024-03-02T06:28:05;9.77;;;6.40;;
78197;SDS011;67472;51.554;7.812;2024-03-02T06:30:52;8.82;;;5.82;;
78197;SDS011;67472;51.554;7.812;2024-03-02T06:33:38;8.80;;;5.88;;
78197;SDS011;67472;51.554;7.812;2024-03-02T06:36:26;10.63;;;5.40;;
78197;SDS011;67472;51.554;7.812;2024-03-02T06:39:13;8.57;;;5.90;;
78197;SDS011;67472;51.554;7.812;2024-03-02T06:41:59;7.55;;;4.90;;
78197;SDS011;67472;51.554;7.812;2024-03-02T06:44:46;8.40;;;5.03;;
78197;SDS011;67472;51.554;7.812;2024-03-02T06:47:32;6.72;;;4.75;;
78197;SDS011;67472;51.554;7.812;2024-03-02T06:50:18;8.07;;;4.78;;
78197;SDS011;67472;51.554;7.812;2024-03-02T06:53:04;7.32;;;5.57;;
78197;SDS011;67472;51.554;7.812;2024-03-02T06:55:52;7.15;;;5.07;;
78197;SDS011;67472;51.554;7.812;2024-03-02T06:58:40;6.40;;;4.47;;
78197;SDS011;67472;51.554;7.812;2024-03-02T07:01:27;7.50;;;4.25;;
78197;SDS011;67472;51.554;7.812;2024-03-02T07:04:14;7.78;;;4.63;;
78197;SDS011;67472;51.554;7.812;2024-03-02T07:07:01;7.00;;;4.55;;
78197;SDS011;67472;51.554;7.812;2024-03-02T07:09:47;5.78;;;3.97;;
78197;SDS011;67472;51.554;7.812;2024-03-02T07:12:35;5.25;;;4.30;;
78197;SDS011;67472;51.554;7.812;2024-03-02T07:15:21;6.43;;;4.15;;
78197;SDS011;67472;51.554;7.812;2024-03-02T07:18:22;6.57;;;4.60;;
78197;SDS011;67472;51.554;7.812;2024-03-02T07:21:09;6.05;;;4.40;;
78197;SDS011;67472;51.554;7.812;2024-03-02T07:23:55;7.97;;;4.80;;
78197;SDS011;67472;51.554;7.812;2024-03-02T07:26:42;7.80;;;4.97;;
78197;SDS011;67472;51.554;7.812;2024-03-02T07:29:30;7.05;;;4.28;;
78197;SDS011;67472;51.554;7.812;2024-03-02T07:32:17;5.10;;;4.13;;
78197;SDS011;67472;51.554;7.812;2024-03-02T07:35:03;4.90;;;4.07;;
78197;SDS011;67472;51.554;7.812;2024-03-02T07:37:50;6.32;;;4.65;;
78197;SDS011;67472;51.554;7.812;2024-03-02T07:40:36;6.47;;;4.28;;
78197;SDS011;67472;51.554;7.812;2024-03-02T07:43:23;5.38;;;3.75;;
78197;SDS011;67472;51.554;7.812;2024-03-02T07:46:11;8.52;;;4.55;;
78197;SDS011;67472;51.554;7.812;2024-03-02T07:48:57;5.65;;;4.25;;
78197;SDS011;67472;51.554;7.812;2024-03-02T07:51:43;5.88;;;4.32;;
78197;SDS011;67472;51.554;7.812;2024-03-02T07:54:30;6.07;;;4.25;;
78197;SDS011;67472;51.554;7.812;2024-03-02T07:57:16;5.53;;;4.30;;
78197;SDS011;67472;51.554;7.812;2024-03-02T08:00:03;6.75;;;4.50;;
78197;SDS011;67472;51.554;7.812;2024-03-02T08:02:58;6.20;;;4.32;;
78197;SDS011;67472;51.554;7.812;2024-03-02T08:05:44;5.22;;;4.15;;
78197;SDS011;67472;51.554;7.812;2024-03-02T08:08:31;7.47;;;4.70;;
78197;SDS011;67472;51.554;7.812;2024-03-02T08:11:18;9.85;;;5.07;;
78197;SDS011;67472;51.554;7.812;2024-03-02T08:14:04;10.18;;;6.78;;
78197;SDS011;67472;51.554;7.812;2024-03-02T08:16:51;5.85;;;4.45;;
78197;SDS011;67472;51.554;7.812;2024-03-02T08:19:39;8.95;;;4.95;;
78197;SDS011;67472;51.554;7.812;2024-03-02T08:22:26;9.23;;;7.00;;
78197;SDS011;67472;51.554;7.812;2024-03-02T08:25:12;6.18;;;4.30;;
78197;SDS011;67472;51.554;7.812;2024-03-02T08:28:00;5.82;;;4.10;;
78197;SDS011;67472;51.554;7.812;2024-03-02T08:30:47;6.60;;;4.18;;
78197;SDS011;67472;51.554;7.812;2024-03-02T08:33:33;6.65;;;4.63;;
78197;SDS011;67472;51.554;7.812;2024-03-02T08:36:22;6.50;;;4.18;;
78197;SDS011;67472;51.554;7.812;2024-03-02T08:39:09;5.25;;;4.28;;
78197;SDS011;67472;51.554;7.812;2024-03-02T08:41:59;5.55;;;3.83;;
78197;SDS011;67472;51.554;7.812;2024-03-02T08:44:46;5.72;;;3.53;;
78197;SDS011;67472;51.554;7.812;2024-03-02T08:47:32;4.47;;;3.67;;
78197;SDS011;67472;51.554;7.812;2024-03-02T08:50:19;6.35;;;3.83;;
78197;SDS011;67472;51.554;7.812;2024-03-02T08:53:06;8.73;;;3.72;;
78197;SDS011;67472;51.554;7.812;2024-03-02T08:55:54;6.53;;;3.85;;
78197;SDS011;67472;51.554;7.812;2024-03-02T08:58:40;4.00;;;3.17;;
78197;SDS011;67472;51.554;7.812;2024-03-02T09:01:27;5.88;;;3.75;;
78197;SDS011;67472;51.554;7.812;2024-03-02T09:04:14;4.57;;;3.85;;
78197;SDS011;67472;51.554;7.812;2024-03-02T09:07:00;6.88;;;3.47;;
78197;SDS011;67472;51.554;7.812;2024-03-02T09:09:48;6.03;;;3.85;;
78197;SDS011;67472;51.554;7.812;2024-03-02T09:12:34;4.70;;;3.22;;
78197;SDS011;67472;51.554;7.812;2024-03-02T09:15:20;5.15;;;3.33;;
78197;SDS011;67472;51.554;7.812;2024-03-02T09:18:07;4.10;;;3.13;;
78197;SDS011;67472;51.554;7.812;2024-03-02T09:20:53;5.90;;;3.70;;
78197;SDS011;67472;51.554;7.812;2024-03-02T09:23:40;16.85;;;4.55;;
78197;SDS011;67472;51.554;7.812;2024-03-02T09:26:28;3.60;;;2.53;;
78197;SDS011;67472;51.554;7.812;2024-03-02T09:29:14;4.38;;;2.95;;
78197;SDS011;67472;51.554;7.812;2024-03-02T09:32:01;6.93;;;5.05;;
78197;SDS011;67472;51.554;7.812;2024-03-02T09:34:47;4.55;;;3.30;;
78197;SDS011;67472;51.554;7.812;2024-03-02T09:37:34;5.43;;;2.85;;
78197;SDS011;67472;51.554;7.812;2024-03-02T09:40:21;4.78;;;2.60;;
78197;SDS011;67472;51.554;7.812;2024-03-02T09:43:11;2.92;;;2.30;;
78197;SDS011;67472;51.554;7.812;2024-03-02T09:45:57;2.88;;;2.10;;
78197;SDS011;67472;51.554;7.812;2024-03-02T09:48:44;1.90;;;1.67;;
78197;SDS011;67472;51.554;7.812;2024-03-02T09:51:31;7.28;;;1.73;;
78197;SDS011;67472;51.554;7.812;2024-03-02T09:54:17;4.00;;;2.55;;
78197;SDS011;67472;51.554;7.812;2024-03-02T09:57:05;2.13;;;1.88;;
78197;SDS011;67472;51.554;7.812;2024-03-02T09:59:53;1.63;;;1.50;;
78197;SDS011;67472;51.554;7.812;2024-03-02T10:02:39;2.45;;;1.60;;
78197;SDS011;67472;51.554;7.812;2024-03-02T10:05:27;1.95;;;1.45;;
78197;SDS011;67472;51.554;7.812;2024-03-02T10:08:14;2.00;;;1.75;;
78197;SDS011;67472;51.554;7.812;2024-03-02T10:11:01;3.30;;;1.67;;
78197;SDS011;67472;51.554;7.812;2024-03-02T10:13:47;1.75;;;1.58;;
78197;SDS011;67472;51.554;7.812;2024-03-02T10:16:37;3.92;;;1.50;;
78197;SDS011;67472;51.554;7.812;2024-03-02T10:19:24;2.05;;;1.52;;
78197;SDS011;67472;51.554;7.812;2024-03-02T10:22:10;3.15;;;1.35;;
78197;SDS011;67472;51.554;7.812;2024-03-02T10:24:57;1.33;;;1.23;;
78197;SDS011;67472;51.554;7.812;2024-03-02T10:27:45;2.08;;;1.38;;
78197;SDS011;67472;51.554;7.812;2024-03-02T10:30:36;2.47;;;1.63;;
78197;SDS011;67472;51.554;7.812;2024-03-02T10:33:24;2.92;;;1.60;;
78197;SDS011;67472;51.554;7.812;2024-03-02T10:36:13;4.32;;;1.50;;
78197;SDS011;67472;51.554;7.812;2024-03-02T10:39:01;3.35;;;1.83;;
78197;SDS011;67472;51.554;7.812;2024-03-02T10:41:48;3.03;;;1.85;;
78197;SDS011;67472;51.554;7.812;2024-03-02T10:44:38;3.42;;;1.70;;
78197;SDS011;67472;51.554;7.812;2024-03-02T10:47:26;1.90;;;1.80;;
78197;SDS011;67472;51.554;7.812;2024-03-02T10:50:17;1.38;;;1.27;;
78197;SDS011;67472;51.554;7.812;2024-03-02T10:53:03;2.15;;;1.38;;
78197;SDS011;67472;51.554;7.812;2024-03-02T10:55:50;3.65;;;1.77;;
78197;SDS011;67472;51.554;7.812;2024-03-02T10:58:46;3.90;;;1.88;;
78197;SDS011;67472;51.554;7.812;2024-03-02T11:01:36;18.83;;;11.18;;
78197;SDS011;67472;51.554;7.812;2024-03-02T11:04:25;2.88;;;1.67;;
78197;SDS011;67472;51.554;7.812;2024-03-02T11:07:14;2.10;;;1.30;;
78197;SDS011;67472;51.554;7.812;2024-03-02T11:10:04;4.90;;;1.63;;
78197;SDS011;67472;51.554;7.812;2024-03-02T11:12:56;1.88;;;1.50;;
78197;SDS011;67472;51.554;7.812;2024-03-02T11:15:48;3.05;;;1.35;;
78197;SDS011;67472;51.554;7.812;2024-03-02T11:18:37;2.85;;;0.90;;
78197;SDS011;67472;51.554;7.812;2024-03-02T11:21:25;1.35;;;1.10;;
78197;SDS011;67472;51.554;7.812;2024-03-02T11:24:29;1.20;;;1.10;;
78197;SDS011;67472;51.554;7.812;2024-03-02T11:30:51;1.83;;;1.30;;
78197;SDS011;67472;51.554;7.812;2024-03-02T11:33:38;3.03;;;1.40;;
78197;SDS011;67472;51.554;7.812;2024-03-02T11:36:25;4.75;;;1.23;;
78197;SDS011;67472;51.554;7.812;2024-03-02T11:39:12;1.73;;;1.58;;
78197;SDS011;67472;51.554;7.812;2024-03-02T11:42:00;2.13;;;1.83;;
78197;SDS011;67472;51.554;7.812;2024-03-02T11:44:47;4.50;;;2.65;;
78197;SDS011;67472;51.554;7.812;2024-03-02T11:47:35;2.45;;;1.33;;
78197;SDS011;67472;51.554;7.812;2024-03-02T11:50:28;3.72;;;1.17;;
78197;SDS011;67472;51.554;7.812;2024-03-02T11:53:16;2.42;;;1.60;;
78197;SDS011;67472;51.554;7.812;2024-03-02T11:56:03;1.27;;;1.17;;
78197;SDS011;67472;51.554;7.812;2024-03-02T11:58:55;1.20;;;1.10;;
78197;SDS011;67472;51.554;7.812;2024-03-02T12:01:42;2.15;;;1.70;;
78197;SDS011;67472;51.554;7.812;2024-03-02T12:04:28;2.42;;;2.22;;
78197;SDS011;67472;51.554;7.812;2024-03-02T12:07:18;1.40;;;1.05;;
78197;SDS011;67472;51.554;7.812;2024-03-02T12:10:06;1.48;;;1.20;;
78197;SDS011;67472;51.554;7.812;2024-03-02T12:12:57;2.50;;;1.80;;
78197;SDS011;67472;51.554;7.812;2024-03-02T12:15:45;1.15;;;1.00;;
78197;SDS011;67472;51.554;7.812;2024-03-02T12:18:31;2.97;;;1.05;;
78197;SDS011;67472;51.554;7.812;2024-03-02T12:21:17;1.65;;;1.42;;
78197;SDS011;67472;51.554;7.812;2024-03-02T12:24:04;1.73;;;1.00;;
78197;SDS011;67472;51.554;7.812;2024-03-02T12:26:51;1.95;;;1.10;;
78197;SDS011;67472;51.554;7.812;2024-03-02T12:29:40;2.42;;;1.08;;
78197;SDS011;67472;51.554;7.812;2024-03-02T12:32:28;5.63;;;1.15;;
78197;SDS011;67472;51.554;7.812;2024-03-02T12:35:14;1.05;;;0.95;;
78197;SDS011;67472;51.554;7.812;2024-03-02T12:38:01;1.88;;;1.10;;
78197;SDS011;67472;51.554;7.812;2024-03-02T12:40:47;2.00;;;1.00;;
78197;SDS011;67472;51.554;7.812;2024-03-02T12:43:35;1.10;;;0.90;;
78197;SDS011;67472;51.554;7.812;2024-03-02T12:46:21;1.65;;;0.68;;
78197;SDS011;67472;51.554;7.812;2024-03-02T12:49:12;1.02;;;0.82;;
78197;SDS011;67472;51.554;7.812;2024-03-02T12:52:00;1.50;;;0.80;;
78197;SDS011;67472;51.554;7.812;2024-03-02T12:54:47;1.00;;;0.75;;
78197;SDS011;67472;51.554;7.812;2024-03-02T12:57:34;1.20;;;0.85;;
78197;SDS011;67472;51.554;7.812;2024-03-02T13:00:20;1.05;;;0.65;;
78197;SDS011;67472;51.554;7.812;2024-03-02T13:03:09;1.45;;;0.90;;
78197;SDS011;67472;51.554;7.812;2024-03-02T13:05:59;1.05;;;0.80;;
78197;SDS011;67472;51.554;7.812;2024-03-02T13:08:45;1.88;;;0.98;;
78197;SDS011;67472;51.554;7.812;2024-03-02T13:11:33;1.67;;;1.15;;
78197;SDS011;67472;51.554;7.812;2024-03-02T13:14:22;2.72;;;1.02;;
78197;SDS011;67472;51.554;7.812;2024-03-02T13:17:09;0.80;;;0.70;;
78197;SDS011;67472;51.554;7.812;2024-03-02T13:20:01;0.80;;;0.80;;
78197;SDS011;67472;51.554;7.812;2024-03-02T13:22:54;1.08;;;1.02;;
78197;SDS011;67472;51.554;7.812;2024-03-02T13:25:42;2.67;;;0.80;;
78197;SDS011;67472;51.554;7.812;2024-03-02T13:28:32;0.63;;;0.63;;
78197;SDS011;67472;51.554;7.812;2024-03-02T13:31:19;1.13;;;1.00;;
78197;SDS011;67472;51.554;7.812;2024-03-02T13:34:07;1.02;;;0.93;;
78197;SDS011;67472;51.554;7.812;2024-03-02T13:36:53;1.38;;;0.98;;
78197;SDS011;67472;51.554;7.812;2024-03-02T13:39:41;1.77;;;0.98;;
78197;SDS011;67472;51.554;7.812;2024-03-02T13:42:27;1.05;;;0.93;;
78197;SDS011;67472;51.554;7.812;2024-03-02T13:45:14;0.88;;;0.80;;
78197;SDS011;67472;51.554;7.812;2024-03-02T13:48:02;1.40;;;0.70;;
78197;SDS011;67472;51.554;7.812;2024-03-02T13:50:49;0.68;;;0.68;;
78197;SDS011;67472;51.554;7.812;2024-03-02T13:53:35;1.02;;;0.93;;
78197;SDS011;67472;51.554;7.812;2024-03-02T13:56:24;3.88;;;1.50;;
78197;SDS011;67472;51.554;7.812;2024-03-02T13:59:10;3.03;;;1.13;;
78197;SDS011;67472;51.554;7.812;2024-03-02T14:01:57;1.33;;;0.90;;
78197;SDS011;67472;51.554;7.812;2024-03-02T14:04:44;1.13;;;1.00;;
78197;SDS011;67472;51.554;7.812;2024-03-02T14:07:30;2.53;;;0.90;;
78197;SDS011;67472;51.554;7.812;2024-03-02T14:10:17;1.00;;;0.77;;
78197;SDS011;67472;51.554;7.812;2024-03-02T14:13:08;1.27;;;0.93;;
78197;SDS011;67472;51.554;7.812;2024-03-02T14:15:54;1.40;;;0.98;;
78197;SDS011;67472;51.554;7.812;2024-03-02T14:18:42;1.13;;;0.80;;
78197;SDS011;67472;51.554;7.812;2024-03-02T14:21:29;0.95;;;0.77;;
78197;SDS011;67472;51.554;7.812;2024-03-02T14:24:16;0.47;;;0.47;;
78197;SDS011;67472;51.554;7.812;2024-03-02T14:27:08;1.17;;;0.90;;
78197;SDS011;67472;51.554;7.812;2024-03-02T14:29:56;0.85;;;0.85;;
78197;SDS011;67472;51.554;7.812;2024-03-02T14:32:43;2.00;;;0.80;;
78197;SDS011;67472;51.554;7.812;2024-03-02T14:35:29;1.25;;;0.77;;
78197;SDS011;67472;51.554;7.812;2024-03-02T14:38:17;4.55;;;0.73;;
78197;SDS011;67472;51.554;7.812;2024-03-02T14:41:03;1.52;;;0.80;;
78197;SDS011;67472;51.554;7.812;2024-03-02T14:43:52;1.85;;;0.93;;
78197;SDS011;67472;51.554;7.812;2024-03-02T14:46:40;0.68;;;0.60;;
78197;SDS011;67472;51.554;7.812;2024-03-02T14:49:29;1.20;;;1.10;;
78197;SDS011;67472;51.554;7.812;2024-03-02T14:52:18;1.02;;;0.90;;
78197;SDS011;67472;51.554;7.812;2024-03-02T14:55:04;1.17;;;0.93;;
78197;SDS011;67472;51.554;7.812;2024-03-02T14:57:53;4.78;;;1.63;;
78197;SDS011;67472;51.554;7.812;2024-03-02T15:00:39;2.40;;;1.40;;
78197;SDS011;67472;51.554;7.812;2024-03-02T15:03:28;1.30;;;1.20;;
78197;SDS011;67472;51.554;7.812;2024-03-02T15:06:14;3.40;;;1.48;;
78197;SDS011;67472;51.554;7.812;2024-03-02T15:09:01;1.15;;;1.02;;
78197;SDS011;67472;51.554;7.812;2024-03-02T15:11:47;2.92;;;1.42;;
78197;SDS011;67472;51.554;7.812;2024-03-02T15:14:33;2.97;;;0.80;;
78197;SDS011;67472;51.554;7.812;2024-03-02T15:17:20;0.88;;;0.80;;
78197;SDS011;67472;51.554;7.812;2024-03-02T15:20:08;1.00;;;0.82;;
78197;SDS011;67472;51.554;7.812;2024-03-02T15:22:55;1.13;;;1.02;;
78197;SDS011;67472;51.554;7.812;2024-03-02T15:25:41;1.20;;;1.00;;
78197;SDS011;67472;51.554;7.812;2024-03-02T15:28:28;4.90;;;1.20;;
78197;SDS011;67472;51.554;7.812;2024-03-02T15:31:15;1.50;;;1.10;;
78197;SDS011;67472;51.554;7.812;2024-03-02T15:34:02;3.30;;;1.05;;
78197;SDS011;67472;51.554;7.812;2024-03-02T15:36:55;2.70;;;1.10;;
78197;SDS011;67472;51.554;7.812;2024-03-02T15:39:42;0.95;;;0.88;;
78197;SDS011;67472;51.554;7.812;2024-03-02T15:42:29;2.15;;;1.02;;
78197;SDS011;67472;51.554;7.812;2024-03-02T15:45:15;3.58;;;1.38;;
78197;SDS011;67472;51.554;7.812;2024-03-02T15:48:02;3.28;;;1.30;;
78197;SDS011;67472;51.554;7.812;2024-03-02T15:50:49;2.85;;;2.10;;
78197;SDS011;67472;51.554;7.812;2024-03-02T15:53:38;4.53;;;1.20;;
78197;SDS011;67472;51.554;7.812;2024-03-02T15:56:27;1.15;;;1.05;;
78197;SDS011;67472;51.554;7.812;2024-03-02T15:59:13;2.40;;;1.27;;
78197;SDS011;67472;51.554;7.812;2024-03-02T16:02:00;1.85;;;1.23;;
78197;SDS011;67472;51.554;7.812;2024-03-02T16:04:47;2.00;;;1.25;;
78197;SDS011;67472;51.554;7.812;2024-03-02T16:07:33;2.63;;;0.95;;
78197;SDS011;67472;51.554;7.812;2024-03-02T16:10:21;2.10;;;1.20;;
78197;SDS011;67472;51.554;7.812;2024-03-02T16:13:08;4.22;;;1.10;;
78197;SDS011;67472;51.554;7.812;2024-03-02T16:15:55;11.15;;;3.05;;
78197;SDS011;67472;51.554;7.812;2024-03-02T16:18:41;2.08;;;1.38;;
78197;SDS011;67472;51.554;7.812;2024-03-02T16:21:28;3.70;;;1.55;;
78197;SDS011;67472;51.554;7.812;2024-03-02T16:24:14;4.90;;;1.27;;
78197;SDS011;67472;51.554;7.812;2024-03-02T16:27:02;1.17;;;1.00;;
78197;SDS011;67472;51.554;7.812;2024-03-02T16:29:50;1.70;;;1.60;;
78197;SDS011;67472;51.554;7.812;2024-03-02T16:32:39;3.80;;;1.90;;
78197;SDS011;67472;51.554;7.812;2024-03-02T16:35:26;3.83;;;2.38;;
78197;SDS011;67472;51.554;7.812;2024-03-02T16:38:12;5.18;;;2.30;;
78197;SDS011;67472;51.554;7.812;2024-03-02T16:40:59;4.00;;;2.80;;
78197;SDS011;67472;51.554;7.812;2024-03-02T16:43:46;3.78;;;2.80;;
78197;SDS011;67472;51.554;7.812;2024-03-02T16:46:33;3.33;;;2.63;;
78197;SDS011;67472;51.554;7.812;2024-03-02T16:49:18;3.33;;;2.85;;
78197;SDS011;67472;51.554;7.812;2024-03-02T16:52:05;4.30;;;2.53;;
78197;SDS011;67472;51.554;7.812;2024-03-02T16:54:52;3.00;;;2.60;;